createdAt,value
2019-01-15T00:00:26.870Z,99.90
2019-01-15T00:01:30.975Z,99.90
2019-01-15T00:02:35.078Z,99.90
2019-01-15T00:03:39.151Z,99.90
2019-01-15T00:04:43.247Z,99.90
2019-01-15T00:05:47.366Z,99.90
2019-01-15T00:06:51.438Z,99.90
2019-01-15T00:07:55.542Z,99.90
2019-01-15T00:08:59.694Z,99.90
2019-01-15T00:10:04.036Z,99.90
2019-01-15T00:11:08.179Z,99.90
2019-01-15T00:12:12.528Z,99.90
2019-01-15T00:13:16.630Z,99.90
2019-01-15T00:14:20.735Z,99.90
2019-01-15T00:15:24.868Z,99.90
2019-01-15T00:16:28.954Z,99.90
2019-01-15T00:17:33.083Z,99.90
2019-01-15T00:18:37.211Z,99.90
2019-01-15T00:19:41.295Z,99.90
2019-01-15T00:20:45.404Z,99.90
2019-01-15T00:21:49.492Z,99.90
2019-01-15T00:22:53.575Z,99.90
2019-01-15T00:23:57.654Z,99.90
2019-01-15T00:25:01.735Z,99.90
2019-01-15T00:26:05.845Z,99.90
2019-01-15T00:27:10.063Z,99.90
2019-01-15T00:28:14.214Z,99.90
2019-01-15T00:29:19.146Z,99.90
2019-01-15T00:30:23.626Z,99.90
2019-01-15T00:31:27.743Z,99.90
2019-01-15T00:32:31.833Z,99.90
2019-01-15T00:33:35.908Z,99.90
2019-01-15T00:34:40.257Z,99.90
2019-01-15T00:35:44.475Z,99.90
2019-01-15T00:36:48.559Z,99.90
2019-01-15T00:37:52.667Z,99.90
2019-01-15T00:38:56.790Z,99.90
2019-01-15T00:40:00.899Z,99.90
2019-01-15T00:41:04.995Z,99.90
2019-01-15T00:42:15.294Z,99.90
2019-01-15T00:43:14.938Z,99.90
2019-01-15T00:44:19.027Z,99.90
2019-01-15T00:45:23.207Z,99.90
2019-01-15T00:46:27.363Z,99.90
2019-01-15T00:47:31.455Z,99.90
2019-01-15T00:48:35.530Z,99.90
2019-01-15T00:49:39.617Z,99.90
2019-01-15T00:50:43.690Z,99.90
2019-01-15T00:51:47.794Z,99.90
2019-01-15T00:52:51.881Z,99.90
2019-01-15T00:53:56.084Z,99.90
2019-01-15T00:55:00.236Z,99.90
2019-01-15T00:56:04.441Z,99.90
2019-01-15T00:57:08.600Z,99.90
2019-01-15T00:58:12.732Z,99.90
2019-01-15T00:59:16.831Z,99.90
2019-01-15T01:00:22.007Z,99.90
2019-01-15T01:01:26.120Z,99.90
2019-01-15T01:02:30.213Z,99.90
2019-01-15T01:03:34.282Z,99.90
2019-01-15T01:04:38.676Z,99.90
2019-01-15T01:05:42.895Z,99.90
2019-01-15T01:06:47.459Z,99.90
2019-01-15T01:07:51.910Z,99.90
2019-01-15T01:08:56.111Z,99.90
2019-01-15T01:10:00.337Z,99.90
2019-01-15T01:11:04.481Z,99.90
2019-01-15T01:12:08.608Z,99.90
2019-01-15T01:13:12.739Z,99.90
2019-01-15T01:14:16.828Z,99.90
2019-01-15T01:15:20.983Z,99.90
2019-01-15T01:16:25.054Z,99.90
2019-01-15T01:17:29.203Z,99.90
2019-01-15T01:18:33.320Z,99.90
2019-01-15T01:19:37.402Z,99.90
2019-01-15T01:20:41.484Z,99.90
2019-01-15T01:21:45.560Z,99.90
2019-01-15T01:22:50.019Z,99.90
2019-01-15T01:23:54.094Z,99.90
2019-01-15T01:24:58.170Z,99.90
2019-01-15T01:26:02.251Z,99.90
2019-01-15T01:27:06.370Z,99.90
2019-01-15T01:28:10.735Z,99.90
2019-01-15T01:29:14.824Z,99.90
2019-01-15T01:30:20.825Z,99.90
2019-01-15T01:31:24.898Z,99.90
2019-01-15T01:32:28.990Z,99.90
2019-01-15T01:33:34.098Z,99.90
2019-01-15T01:34:38.187Z,99.90
2019-01-15T01:35:42.271Z,99.90
2019-01-15T01:36:46.359Z,99.90
2019-01-15T01:37:50.448Z,99.90
2019-01-15T01:38:54.555Z,99.90
2019-01-15T01:39:58.639Z,99.90
2019-01-15T01:41:02.719Z,99.90
2019-01-15T01:42:06.800Z,99.90
2019-01-15T01:43:11.131Z,99.90
2019-01-15T01:44:15.387Z,99.90
2019-01-15T01:45:19.839Z,99.90
2019-01-15T01:46:23.926Z,99.90
2019-01-15T01:47:27.991Z,99.90
2019-01-15T01:48:32.067Z,99.90
2019-01-15T01:49:36.167Z,99.90
2019-01-15T01:50:40.239Z,99.90
2019-01-15T01:51:44.314Z,99.90
2019-01-15T01:52:48.411Z,99.90
2019-01-15T01:53:52.501Z,99.90
2019-01-15T01:54:57.514Z,99.90
2019-01-15T01:56:01.591Z,99.90
2019-01-15T01:57:05.723Z,99.90
2019-01-15T01:58:09.979Z,99.90
2019-01-15T01:59:14.167Z,99.90
2019-01-15T02:00:20.083Z,99.90
2019-01-15T02:01:24.154Z,99.90
2019-01-15T02:02:28.427Z,99.90
2019-01-15T02:03:32.531Z,99.90
2019-01-15T02:04:36.631Z,99.90
2019-01-15T02:05:40.707Z,99.90
2019-01-15T02:06:44.796Z,99.90
2019-01-15T02:07:48.899Z,99.90
2019-01-15T02:08:52.983Z,99.90
2019-01-15T02:09:57.079Z,99.90
2019-01-15T02:11:01.199Z,99.90
2019-01-15T02:12:05.292Z,99.90
2019-01-15T02:13:09.507Z,99.90
2019-01-15T02:14:13.859Z,99.90
2019-01-15T02:15:19.956Z,99.90
2019-01-15T02:16:24.036Z,99.90
2019-01-15T02:17:28.115Z,99.90
2019-01-15T02:18:32.245Z,99.90
2019-01-15T02:19:36.314Z,99.90
2019-01-15T02:20:40.427Z,99.90
2019-01-15T02:21:44.510Z,99.90
2019-01-15T02:22:48.706Z,99.90
2019-01-15T02:23:52.780Z,99.90
2019-01-15T02:24:56.866Z,99.90
2019-01-15T02:26:00.972Z,99.90
2019-01-15T02:27:06.651Z,99.90
2019-01-15T02:28:11.046Z,99.90
2019-01-15T02:29:15.146Z,99.90
2019-01-15T02:30:21.282Z,99.90
2019-01-15T02:31:25.464Z,99.90
2019-01-15T02:32:29.536Z,99.90
2019-01-15T02:33:33.633Z,99.90
2019-01-15T02:34:37.778Z,99.90
2019-01-15T02:35:41.884Z,99.90
2019-01-15T02:36:45.956Z,99.90
2019-01-15T02:37:50.043Z,99.90
2019-01-15T02:38:54.176Z,99.90
2019-01-15T02:39:58.287Z,99.90
2019-01-15T02:41:02.387Z,99.90
2019-01-15T02:42:06.463Z,99.90
2019-01-15T02:43:10.719Z,99.90
2019-01-15T02:44:14.804Z,99.90
2019-01-15T02:45:20.430Z,99.90
2019-01-15T02:46:24.662Z,99.90
2019-01-15T02:47:28.732Z,99.90
2019-01-15T02:48:32.819Z,99.90
2019-01-15T02:49:36.899Z,99.90
2019-01-15T02:50:40.976Z,99.90
2019-01-15T02:51:45.068Z,99.90
2019-01-15T02:52:49.160Z,99.90
2019-01-15T02:53:53.236Z,99.90
2019-01-15T02:54:57.336Z,99.90
2019-01-15T02:56:01.448Z,99.90
2019-01-15T02:57:05.651Z,99.90
2019-01-15T02:58:10.037Z,99.90
2019-01-15T02:59:14.165Z,99.90
2019-01-15T03:00:26.030Z,99.90
2019-01-15T03:01:30.239Z,99.90
2019-01-15T03:02:34.424Z,99.90
2019-01-15T03:03:38.499Z,99.90
2019-01-15T03:04:42.620Z,99.90
2019-01-15T03:05:46.706Z,99.90
2019-01-15T03:06:50.825Z,99.90
2019-01-15T03:07:54.946Z,99.90
2019-01-15T03:08:59.030Z,99.90
2019-01-15T03:10:03.251Z,99.90
2019-01-15T03:11:07.392Z,99.90
2019-01-15T03:12:11.718Z,99.90
2019-01-15T03:13:15.804Z,99.90
2019-01-15T03:14:19.933Z,99.90
2019-01-15T03:15:24.509Z,99.90
2019-01-15T03:16:28.590Z,99.90
2019-01-15T03:17:32.759Z,99.90
2019-01-15T03:18:36.844Z,99.90
2019-01-15T03:19:40.911Z,99.90
2019-01-15T03:20:44.985Z,99.90
2019-01-15T03:21:49.090Z,99.90
2019-01-15T03:22:53.223Z,99.90
2019-01-15T03:23:57.307Z,99.90
2019-01-15T03:25:01.386Z,99.90
2019-01-15T03:26:05.471Z,99.90
2019-01-15T03:27:09.642Z,99.90
2019-01-15T03:28:13.856Z,99.90
2019-01-15T03:29:17.957Z,99.90
2019-01-15T03:30:23.766Z,99.90
2019-01-15T03:31:27.888Z,99.90
2019-01-15T03:32:31.972Z,99.90
2019-01-15T03:33:36.076Z,99.90
2019-01-15T03:34:40.192Z,99.90
2019-01-15T03:35:44.263Z,99.90
2019-01-15T03:36:48.350Z,99.90
2019-01-15T03:37:52.503Z,99.90
2019-01-15T03:38:56.607Z,99.90
2019-01-15T03:40:00.761Z,99.90
2019-01-15T03:41:04.854Z,99.90
2019-01-15T03:42:08.994Z,99.90
2019-01-15T03:43:13.148Z,99.90
2019-01-15T03:44:17.238Z,99.90
2019-01-15T03:45:21.318Z,99.90
2019-01-15T03:46:25.416Z,99.90
2019-01-15T03:47:29.506Z,99.90
2019-01-15T03:48:33.587Z,99.90
2019-01-15T03:49:37.704Z,99.90
2019-01-15T03:50:41.898Z,99.90
2019-01-15T03:51:45.967Z,99.90
2019-01-15T03:52:50.048Z,99.90
2019-01-15T03:53:54.199Z,99.90
2019-01-15T03:54:58.320Z,99.90
2019-01-15T03:56:02.397Z,99.90
2019-01-15T03:57:06.547Z,99.90
2019-01-15T03:58:10.817Z,99.90
2019-01-15T03:59:14.971Z,99.90
2019-01-15T04:00:26.130Z,99.90
2019-01-15T04:01:30.220Z,99.90
2019-01-15T04:02:34.313Z,99.90
2019-01-15T04:03:38.396Z,99.90
2019-01-15T04:04:42.680Z,99.90
2019-01-15T04:05:46.787Z,99.90
2019-01-15T04:06:50.881Z,99.90
2019-01-15T04:07:56.579Z,99.90
2019-01-15T04:09:00.667Z,99.90
2019-01-15T04:10:05.510Z,99.90
2019-01-15T04:11:09.780Z,99.90
2019-01-15T04:12:13.883Z,99.90
2019-01-15T04:13:17.982Z,99.90
2019-01-15T04:14:22.067Z,99.90
2019-01-15T04:15:26.181Z,99.90
2019-01-15T04:16:30.259Z,99.90
2019-01-15T04:17:34.343Z,99.90
2019-01-15T04:18:38.436Z,99.90
2019-01-15T04:19:42.616Z,99.90
2019-01-15T04:20:46.715Z,99.90
2019-01-15T04:21:50.791Z,99.90
2019-01-15T04:22:54.920Z,99.90
2019-01-15T04:23:59.011Z,99.90
2019-01-15T04:25:03.086Z,99.90
2019-01-15T04:26:07.240Z,99.90
2019-01-15T04:27:11.375Z,99.90
2019-01-15T04:28:15.446Z,99.90
2019-01-15T04:29:19.531Z,99.90
2019-01-15T04:30:24.227Z,99.90
2019-01-15T04:31:28.321Z,99.90
2019-01-15T04:32:32.487Z,99.90
2019-01-15T04:33:36.562Z,99.90
2019-01-15T04:34:40.721Z,99.90
2019-01-15T04:35:44.874Z,99.90
2019-01-15T04:36:48.979Z,99.90
2019-01-15T04:37:53.060Z,99.90
2019-01-15T04:38:57.138Z,99.90
2019-01-15T04:40:01.228Z,99.90
2019-01-15T04:41:05.307Z,99.90
2019-01-15T04:42:09.715Z,99.90
2019-01-15T04:43:19.598Z,99.90
2019-01-15T04:44:19.670Z,99.90
2019-01-15T04:45:24.463Z,99.90
2019-01-15T04:46:28.551Z,99.90
2019-01-15T04:47:32.651Z,99.90
2019-01-15T04:48:36.759Z,99.90
2019-01-15T04:49:40.827Z,99.90
2019-01-15T04:50:44.956Z,99.90
2019-01-15T04:51:49.044Z,99.90
2019-01-15T04:52:56.448Z,99.90
2019-01-15T04:54:00.538Z,99.90
2019-01-15T04:55:05.565Z,99.90
2019-01-15T04:56:09.750Z,99.90
2019-01-15T04:57:14.007Z,99.90
2019-01-15T04:58:18.112Z,99.90
2019-01-15T04:59:22.307Z,99.90
2019-01-15T05:00:26.395Z,99.90
2019-01-15T05:01:30.475Z,99.90
2019-01-15T05:02:35.635Z,99.90
2019-01-15T05:03:39.729Z,99.90
2019-01-15T05:04:43.798Z,99.90
2019-01-15T05:05:47.894Z,99.90
2019-01-15T05:06:51.962Z,99.90
2019-01-15T05:07:56.176Z,99.90
2019-01-15T05:09:00.344Z,99.90
2019-01-15T05:10:05.036Z,99.90
2019-01-15T05:11:09.358Z,99.90
2019-01-15T05:12:13.509Z,99.90
2019-01-15T05:13:17.618Z,99.90
2019-01-15T05:14:21.700Z,99.90
2019-01-15T05:15:25.775Z,99.90
2019-01-15T05:16:29.867Z,99.90
2019-01-15T05:17:33.943Z,99.90
2019-01-15T05:18:38.051Z,99.90
2019-01-15T05:19:42.147Z,99.90
2019-01-15T05:20:46.239Z,99.90
2019-01-15T05:21:50.447Z,99.90
2019-01-15T05:22:54.548Z,99.90
2019-01-15T05:23:58.646Z,99.90
2019-01-15T05:25:02.731Z,99.90
2019-01-15T05:26:06.818Z,99.90
2019-01-15T05:27:11.116Z,99.90
2019-01-15T05:28:15.245Z,99.90
2019-01-15T05:29:19.339Z,99.90
2019-01-15T05:30:28.376Z,99.90
2019-01-15T05:31:32.496Z,99.90
2019-01-15T05:32:36.638Z,99.90
2019-01-15T05:33:40.741Z,99.90
2019-01-15T05:34:44.826Z,99.90
2019-01-15T05:35:48.903Z,99.90
2019-01-15T05:36:52.982Z,99.90
2019-01-15T05:37:57.126Z,99.90
2019-01-15T05:39:01.272Z,99.90
2019-01-15T05:40:05.932Z,99.90
2019-01-15T05:41:10.183Z,99.90
2019-01-15T05:42:14.281Z,99.90
2019-01-15T05:43:18.475Z,99.90
2019-01-15T05:44:22.586Z,99.90
2019-01-15T05:45:29.511Z,99.90
2019-01-15T05:46:33.591Z,99.90
2019-01-15T05:47:37.683Z,99.90
2019-01-15T05:48:41.768Z,99.90
2019-01-15T05:49:45.883Z,99.90
2019-01-15T05:51:14.998Z,99.90
2019-01-15T05:52:19.074Z,99.90
2019-01-15T05:53:23.153Z,99.90
2019-01-15T05:54:27.239Z,99.90
2019-01-15T05:55:31.347Z,99.90
2019-01-15T05:56:35.471Z,99.90
2019-01-15T05:57:39.550Z,99.90
2019-01-15T05:58:43.632Z,99.90
2019-01-15T05:59:47.706Z,99.90
2019-01-15T06:00:51.807Z,99.90
2019-01-15T06:01:55.877Z,99.90
2019-01-15T06:02:59.983Z,99.90
2019-01-15T06:04:04.103Z,99.90
2019-01-15T06:05:08.971Z,99.90
2019-01-15T06:06:13.196Z,99.90
2019-01-15T06:07:17.363Z,99.90
2019-01-15T06:08:21.447Z,99.90
2019-01-15T06:09:25.541Z,99.90
2019-01-15T06:10:29.672Z,99.90
2019-01-15T06:11:33.790Z,99.90
2019-01-15T06:12:37.897Z,99.90
2019-01-15T06:13:42.742Z,99.90
2019-01-15T06:14:47.071Z,99.90
2019-01-15T06:15:51.180Z,99.90
2019-01-15T06:16:55.258Z,99.90
2019-01-15T06:17:59.374Z,99.90
2019-01-15T06:19:03.463Z,99.90
2019-01-15T06:20:09.571Z,99.90
2019-01-15T06:21:13.800Z,99.90
2019-01-15T06:22:17.897Z,99.90
2019-01-15T06:23:22.002Z,99.90
2019-01-15T06:24:26.082Z,99.90
2019-01-15T06:25:30.174Z,99.90
2019-01-15T06:26:34.297Z,99.90
2019-01-15T06:27:38.399Z,99.90
2019-01-15T06:28:43.010Z,99.90
2019-01-15T06:29:47.118Z,99.90
2019-01-15T06:30:51.303Z,99.90
2019-01-15T06:31:56.693Z,99.90
2019-01-15T06:33:00.859Z,99.90
2019-01-15T06:34:04.956Z,99.90
2019-01-15T06:35:09.351Z,99.90
2019-01-15T06:36:13.623Z,99.90
2019-01-15T06:37:17.718Z,99.90
2019-01-15T06:38:21.896Z,99.90
2019-01-15T06:39:25.987Z,99.90
2019-01-15T06:40:30.104Z,99.90
2019-01-15T06:41:34.258Z,99.90
2019-01-15T06:42:38.385Z,99.90
2019-01-15T06:43:42.480Z,99.90
2019-01-15T06:44:46.576Z,99.90
2019-01-15T06:45:50.702Z,99.90
2019-01-15T06:46:54.868Z,99.90
2019-01-15T06:47:59.031Z,99.90
2019-01-15T06:49:03.152Z,99.90
2019-01-15T06:50:07.403Z,99.90
2019-01-15T06:51:11.907Z,99.90
2019-01-15T06:52:16.036Z,99.90
2019-01-15T06:53:20.132Z,99.90
2019-01-15T06:54:24.257Z,99.90
2019-01-15T06:55:28.359Z,99.90
2019-01-15T06:56:32.452Z,99.90
2019-01-15T06:57:36.564Z,99.90
2019-01-15T06:58:41.024Z,99.90
2019-01-15T06:59:45.152Z,99.90
2019-01-15T07:00:49.390Z,99.90
2019-01-15T07:01:53.595Z,99.90
2019-01-15T07:02:57.898Z,99.90
2019-01-15T07:04:02.152Z,99.90
2019-01-15T07:05:06.748Z,99.90
2019-01-15T07:06:14.148Z,99.90
2019-01-15T07:07:18.552Z,99.90
2019-01-15T07:08:22.775Z,99.90
2019-01-15T07:09:27.250Z,99.90
2019-01-15T07:10:39.228Z,99.90
2019-01-15T07:11:43.430Z,99.90
2019-01-15T07:12:47.612Z,99.90
2019-01-15T07:13:56.965Z,99.90
2019-01-15T07:14:58.319Z,99.90
2019-01-15T07:16:02.679Z,99.90
2019-01-15T07:17:06.859Z,99.90
2019-01-15T07:18:11.296Z,99.90
2019-01-15T07:19:15.691Z,99.90
2019-01-15T07:20:20.175Z,99.90
2019-01-15T07:21:24.399Z,99.90
2019-01-15T07:22:28.819Z,99.90
2019-01-15T07:23:33.206Z,99.90
2019-01-15T07:24:37.775Z,99.90
2019-01-15T07:25:41.950Z,99.90
2019-01-15T07:26:46.030Z,99.90
2019-01-15T07:27:53.114Z,99.90
2019-01-15T07:29:01.509Z,99.90
2019-01-15T07:30:09.280Z,99.90
2019-01-15T07:31:13.942Z,99.90
2019-01-15T07:32:18.051Z,99.90
2019-01-15T07:33:24.808Z,99.90
2019-01-15T07:34:28.890Z,99.90
2019-01-15T07:35:33.336Z,99.90
2019-01-15T07:36:37.710Z,99.90
2019-01-15T07:37:42.350Z,99.90
2019-01-15T07:38:46.816Z,99.90
2019-01-15T07:39:51.005Z,99.90
2019-01-15T07:40:55.235Z,99.90
2019-01-15T07:41:59.457Z,99.90
2019-01-15T07:43:04.043Z,99.90
2019-01-15T07:44:08.574Z,99.90
2019-01-15T07:45:13.083Z,99.90
2019-01-15T07:46:17.255Z,99.90
2019-01-15T07:47:24.240Z,99.90
2019-01-15T07:48:28.874Z,99.90
2019-01-15T07:49:33.015Z,99.90
2019-01-15T07:50:37.962Z,99.90
2019-01-15T07:51:42.094Z,99.90
2019-01-15T07:52:46.848Z,99.90
2019-01-15T07:53:51.293Z,99.90
2019-01-15T07:54:55.538Z,99.90
2019-01-15T07:56:00.902Z,99.90
2019-01-15T07:57:05.373Z,99.90
2019-01-15T07:58:09.738Z,99.90
2019-01-15T07:59:16.231Z,99.90
2019-01-15T08:00:20.809Z,99.90
2019-01-15T08:01:25.294Z,99.90
2019-01-15T08:02:30.721Z,99.90
2019-01-15T08:03:35.138Z,99.90
2019-01-15T08:04:39.581Z,99.90
2019-01-15T08:05:44.084Z,99.90
2019-01-15T08:06:51.661Z,99.90
2019-01-15T08:07:56.250Z,99.90
2019-01-15T08:09:00.570Z,99.90
2019-01-15T08:10:05.155Z,99.90
2019-01-15T08:11:10.011Z,99.90
2019-01-15T08:12:14.229Z,99.90
2019-01-15T08:13:18.627Z,99.90
2019-01-15T08:14:22.859Z,99.90
2019-01-15T08:15:27.559Z,99.90
2019-01-15T08:16:31.843Z,99.90
2019-01-15T08:17:36.055Z,99.90
2019-01-15T08:18:40.780Z,99.90
2019-01-15T08:19:45.552Z,99.90
2019-01-15T08:20:50.145Z,99.90
2019-01-15T08:21:54.967Z,99.90
2019-01-15T08:22:59.225Z,99.90
2019-01-15T08:24:04.170Z,99.90
2019-01-15T08:25:08.964Z,99.90
2019-01-15T08:26:13.367Z,99.90
2019-01-15T08:27:17.449Z,99.90
2019-01-15T08:28:21.672Z,99.90
2019-01-15T08:29:25.875Z,99.90
2019-01-15T08:30:32.311Z,99.90
2019-01-15T08:31:36.491Z,99.90
2019-01-15T08:32:40.753Z,99.90
2019-01-15T08:33:44.971Z,99.90
2019-01-15T08:34:49.187Z,99.90
2019-01-15T08:35:53.344Z,99.90
2019-01-15T08:36:57.548Z,99.90
2019-01-15T08:38:01.672Z,99.90
2019-01-15T08:39:08.009Z,99.90
2019-01-15T08:40:12.931Z,99.90
2019-01-15T08:41:17.169Z,99.90
2019-01-15T08:42:21.390Z,99.90
2019-01-15T08:43:25.500Z,99.90
2019-01-15T08:44:29.782Z,99.90
2019-01-15T08:45:33.862Z,99.90
2019-01-15T08:46:37.938Z,99.90
2019-01-15T08:47:50.873Z,99.90
2019-01-15T08:48:55.023Z,99.90
2019-01-15T08:49:59.263Z,99.90
2019-01-15T08:51:03.955Z,99.90
2019-01-15T08:52:08.155Z,99.90
2019-01-15T08:53:13.790Z,99.90
2019-01-15T08:54:18.142Z,99.90
2019-01-15T08:55:22.286Z,99.90
2019-01-15T08:56:26.400Z,99.90
2019-01-15T08:57:30.577Z,99.90
2019-01-15T08:58:34.782Z,99.90
2019-01-15T08:59:38.914Z,99.90
2019-01-15T09:00:43.123Z,99.90
2019-01-15T09:01:47.223Z,99.90
2019-01-15T09:02:51.308Z,99.90
2019-01-15T09:03:55.663Z,99.90
2019-01-15T09:04:59.823Z,99.90
2019-01-15T09:06:03.963Z,99.90
2019-01-15T09:07:08.243Z,99.90
2019-01-15T09:08:13.005Z,99.90
2019-01-15T09:09:17.226Z,99.90
2019-01-15T09:10:21.532Z,99.90
2019-01-15T09:11:25.719Z,99.90
2019-01-15T09:12:29.913Z,99.90
2019-01-15T09:13:34.097Z,99.90
2019-01-15T09:14:38.223Z,99.90
2019-01-15T09:15:42.475Z,99.90
2019-01-15T09:16:46.757Z,99.90
2019-01-15T09:17:51.089Z,99.90
2019-01-15T09:18:55.537Z,99.90
2019-01-15T09:19:59.742Z,99.90
2019-01-15T09:21:03.847Z,99.90
2019-01-15T09:22:07.947Z,99.90
2019-01-15T09:23:12.194Z,99.90
2019-01-15T09:24:16.411Z,99.90
2019-01-15T09:25:20.506Z,99.90
2019-01-15T09:26:24.598Z,99.90
2019-01-15T09:27:28.739Z,99.90
2019-01-15T09:28:32.914Z,99.90
2019-01-15T09:29:37.217Z,99.90
2019-01-15T09:30:41.315Z,99.90
2019-01-15T09:31:45.407Z,99.90
2019-01-15T09:32:49.690Z,99.90
2019-01-15T09:33:54.028Z,99.90
2019-01-15T09:34:58.212Z,99.90
2019-01-15T09:36:02.329Z,99.90
2019-01-15T09:37:08.133Z,99.90
2019-01-15T09:38:12.791Z,99.90
2019-01-15T09:39:16.910Z,99.90
2019-01-15T09:40:22.785Z,99.90
2019-01-15T09:41:26.933Z,99.90
2019-01-15T09:42:31.019Z,99.90
2019-01-15T09:43:35.096Z,99.90
2019-01-15T09:44:39.400Z,99.90
2019-01-15T09:45:43.506Z,99.90
2019-01-15T09:46:47.650Z,99.90
2019-01-15T09:48:04.267Z,99.90
2019-01-15T09:49:08.502Z,99.90
2019-01-15T09:50:12.980Z,99.90
2019-01-15T09:51:17.139Z,99.90
2019-01-15T09:52:21.335Z,99.90
2019-01-15T09:53:25.857Z,99.90
2019-01-15T09:54:30.046Z,99.90
2019-01-15T09:55:35.374Z,99.90
2019-01-15T09:56:40.494Z,99.90
2019-01-15T09:57:44.744Z,99.90
2019-01-15T09:58:48.821Z,99.90
2019-01-15T09:59:52.919Z,99.90
2019-01-15T10:00:57.063Z,99.90
2019-01-15T10:02:01.168Z,99.90
2019-01-15T10:03:05.466Z,99.90
2019-01-15T10:04:09.563Z,99.90
2019-01-15T10:05:13.675Z,99.90
2019-01-15T10:06:18.266Z,99.90
2019-01-15T10:07:22.360Z,99.90
2019-01-15T10:08:26.450Z,99.90
2019-01-15T10:09:30.523Z,99.90
2019-01-15T10:10:34.735Z,99.90
2019-01-15T10:11:39.295Z,99.90
2019-01-15T10:12:43.559Z,99.90
2019-01-15T10:13:47.652Z,99.90
2019-01-15T10:14:51.738Z,99.90
2019-01-15T10:15:55.879Z,99.90
2019-01-15T10:17:00.110Z,99.90
2019-01-15T10:18:04.291Z,99.90
2019-01-15T10:19:08.432Z,99.90
2019-01-15T10:20:13.521Z,99.90
2019-01-15T10:21:17.605Z,99.90
2019-01-15T10:22:21.682Z,99.90
2019-01-15T10:23:25.819Z,99.90
2019-01-15T10:24:30.097Z,99.90
2019-01-15T10:25:34.405Z,99.90
2019-01-15T10:26:38.555Z,99.90
2019-01-15T10:27:43.175Z,99.90
2019-01-15T10:28:47.280Z,99.90
2019-01-15T10:29:58.971Z,99.90
2019-01-15T10:31:36.874Z,99.90
2019-01-15T10:32:50.454Z,99.90
2019-01-15T10:33:59.103Z,99.90
2019-01-15T10:35:16.827Z,99.90
2019-01-15T10:36:19.462Z,99.90
2019-01-15T10:37:23.584Z,99.90
2019-01-15T10:38:31.767Z,99.90
2019-01-15T10:39:36.008Z,99.90
2019-01-15T10:40:40.138Z,99.90
2019-01-15T10:41:44.235Z,99.90
2019-01-15T10:42:48.447Z,99.90
2019-01-15T10:43:52.590Z,99.90
2019-01-15T10:44:56.687Z,99.90
2019-01-15T10:46:00.775Z,99.90
2019-01-15T10:47:05.039Z,99.80
2019-01-15T10:48:09.315Z,99.80
2019-01-15T10:49:13.518Z,99.70
2019-01-15T10:50:17.595Z,99.70
2019-01-15T10:51:21.674Z,99.50
2019-01-15T10:52:26.793Z,99.50
2019-01-15T10:53:31.142Z,99.80
2019-01-15T10:54:35.235Z,99.50
2019-01-15T10:55:39.336Z,99.30
2019-01-15T10:56:43.415Z,99.20
2019-01-15T10:57:47.780Z,99.30
2019-01-15T10:58:52.318Z,98.80
2019-01-15T10:59:56.483Z,98.70
2019-01-15T11:01:00.798Z,98.60
2019-01-15T11:02:05.062Z,98.30
2019-01-15T11:03:09.272Z,98.10
2019-01-15T11:04:13.643Z,98.00
2019-01-15T11:05:17.827Z,97.80
2019-01-15T11:06:22.113Z,97.80
2019-01-15T11:07:26.323Z,97.70
2019-01-15T11:08:30.526Z,97.70
2019-01-15T11:09:34.667Z,97.60
2019-01-15T11:10:39.729Z,97.50
2019-01-15T11:11:43.992Z,97.40
2019-01-15T11:12:48.305Z,97.30
2019-01-15T11:13:52.577Z,97.20
2019-01-15T11:14:56.803Z,97.00
2019-01-15T11:16:00.911Z,96.90
2019-01-15T11:17:05.121Z,96.70
2019-01-15T11:18:09.393Z,96.60
2019-01-15T11:19:13.663Z,96.50
2019-01-15T11:20:17.818Z,96.20
2019-01-15T11:21:22.006Z,96.00
2019-01-15T11:22:26.242Z,96.30
2019-01-15T11:23:30.359Z,95.90
2019-01-15T11:24:34.535Z,95.80
2019-01-15T11:25:38.692Z,95.40
2019-01-15T11:26:43.207Z,95.20
2019-01-15T11:27:47.316Z,95.10
2019-01-15T11:28:51.387Z,95.20
2019-01-15T11:29:55.802Z,95.30
2019-01-15T11:31:00.055Z,95.40
2019-01-15T11:32:04.168Z,95.40
2019-01-15T11:33:08.490Z,95.30
2019-01-15T11:34:12.959Z,95.10
2019-01-15T11:35:17.107Z,95.00
2019-01-15T11:36:21.191Z,94.90
2019-01-15T11:37:25.283Z,94.60
2019-01-15T11:38:29.364Z,94.40
2019-01-15T11:39:33.547Z,94.40
2019-01-15T11:40:37.760Z,94.50
2019-01-15T11:41:41.911Z,94.50
2019-01-15T11:42:45.974Z,94.40
2019-01-15T11:43:50.487Z,94.20
2019-01-15T11:44:54.727Z,94.60
2019-01-15T11:45:59.007Z,94.40
2019-01-15T11:47:03.078Z,94.50
2019-01-15T11:48:07.186Z,94.40
2019-01-15T11:49:11.355Z,94.40
2019-01-15T11:50:16.682Z,94.30
2019-01-15T11:51:20.831Z,94.10
2019-01-15T11:52:25.007Z,94.30
2019-01-15T11:53:29.075Z,94.10
2019-01-15T11:54:33.168Z,94.10
2019-01-15T11:55:37.384Z,94.40
2019-01-15T11:56:41.576Z,94.20
2019-01-15T11:57:45.679Z,94.10
2019-01-15T11:58:50.355Z,94.10
2019-01-15T11:59:54.646Z,94.40
2019-01-15T12:01:11.429Z,94.10
2019-01-15T12:02:28.942Z,94.30
2019-01-15T12:04:01.272Z,94.20
2019-01-15T12:05:21.087Z,94.20
2019-01-15T12:06:42.547Z,93.90
2019-01-15T12:08:11.720Z,94.00
2019-01-15T12:09:33.423Z,94.10
2019-01-15T12:10:54.935Z,94.20
2019-01-15T12:12:18.114Z,94.00
2019-01-15T12:13:34.312Z,94.00
2019-01-15T12:14:56.309Z,94.10
2019-01-15T12:16:25.474Z,94.20
2019-01-15T12:17:48.559Z,94.40
2019-01-15T12:19:23.642Z,94.40
2019-01-15T12:20:45.019Z,94.30
2019-01-15T12:22:13.844Z,94.40
2019-01-15T12:23:35.445Z,94.40
2019-01-15T12:24:55.899Z,94.30
2019-01-15T12:26:18.973Z,94.20
2019-01-15T12:27:40.518Z,94.30
2019-01-15T12:29:15.632Z,94.30
2019-01-15T12:30:41.509Z,94.20
2019-01-15T12:32:10.502Z,94.40
2019-01-15T12:33:48.555Z,94.10
2019-01-15T12:35:11.767Z,94.20
2019-01-15T12:36:34.871Z,94.30
2019-01-15T12:37:50.643Z,94.10
2019-01-15T12:39:12.102Z,94.00
2019-01-15T12:40:37.783Z,94.10
2019-01-15T12:41:57.616Z,94.10
2019-01-15T12:43:29.709Z,94.10
2019-01-15T12:44:55.983Z,94.10
2019-01-15T12:46:18.039Z,94.00
2019-01-15T12:47:41.211Z,94.40
2019-01-15T12:49:04.247Z,94.10
2019-01-15T12:50:40.393Z,94.10
2019-01-15T12:52:09.318Z,94.30
2019-01-15T12:53:32.550Z,94.00
2019-01-15T12:54:45.137Z,93.90
2019-01-15T12:56:16.980Z,93.70
2019-01-15T12:57:58.164Z,93.70
2019-01-15T12:59:22.383Z,93.70
2019-01-15T13:00:44.107Z,93.30
2019-01-15T13:02:22.108Z,93.30
2019-01-15T13:04:00.027Z,93.40
2019-01-15T13:05:23.259Z,93.40
2019-01-15T13:06:48.884Z,93.60
2019-01-15T13:08:17.952Z,93.60
2019-01-15T13:09:36.870Z,93.40
2019-01-15T13:10:59.972Z,93.50
2019-01-15T13:12:22.994Z,93.70
2019-01-15T13:13:48.775Z,93.80
2019-01-15T13:15:24.494Z,93.90
2019-01-15T13:16:40.817Z,93.80
2019-01-15T13:18:02.851Z,93.70
2019-01-15T13:19:29.485Z,93.90
2019-01-15T13:20:58.713Z,94.00
2019-01-15T13:22:33.978Z,94.10
2019-01-15T13:23:56.839Z,94.50
2019-01-15T13:25:35.167Z,94.30
2019-01-15T13:26:56.538Z,94.50
2019-01-15T13:28:09.240Z,94.70
2019-01-15T13:29:44.570Z,94.50
2019-01-15T13:31:16.756Z,94.50
2019-01-15T13:32:39.936Z,94.60
2019-01-15T13:34:09.352Z,94.70
2019-01-15T13:35:41.283Z,94.70
2019-01-15T13:36:51.691Z,94.70
2019-01-15T13:38:14.955Z,94.70
2019-01-15T13:39:55.927Z,94.70
2019-01-15T13:41:28.140Z,94.70
2019-01-15T13:43:06.677Z,94.70
2019-01-15T13:44:35.555Z,94.80
2019-01-15T13:46:00.715Z,95.10
2019-01-15T13:47:21.747Z,94.80
2019-01-15T13:48:44.831Z,94.70
2019-01-15T13:50:06.781Z,94.80
2019-01-15T13:51:28.363Z,95.10
2019-01-15T13:53:00.547Z,94.80
2019-01-15T13:54:35.792Z,95.00
2019-01-15T13:55:58.936Z,95.00
2019-01-15T13:57:24.932Z,95.00
2019-01-15T13:59:00.367Z,95.00
2019-01-15T14:00:23.311Z,95.10
2019-01-15T14:01:49.764Z,95.10
2019-01-15T14:03:18.786Z,95.10
2019-01-15T14:04:53.855Z,95.00
2019-01-15T14:06:16.964Z,95.00
2019-01-15T14:07:40.000Z,95.00
2019-01-15T14:09:03.076Z,94.90
2019-01-15T14:10:28.092Z,95.00
2019-01-15T14:11:52.135Z,95.10
2019-01-15T14:13:24.183Z,95.20
2019-01-15T14:14:53.119Z,95.20
2019-01-15T14:16:15.189Z,95.20
2019-01-15T14:17:50.137Z,95.20
2019-01-15T14:19:11.625Z,95.30
2019-01-15T14:20:46.551Z,95.30
2019-01-15T14:22:24.739Z,95.40
2019-01-15T14:23:42.819Z,95.40
2019-01-15T14:25:06.784Z,95.50
2019-01-15T14:26:30.264Z,95.50
2019-01-15T14:28:05.526Z,95.60